createdAt,value
2018-05-26T00:01:04.265Z,23.07
2018-05-26T00:03:31.740Z,25.27
2018-05-26T00:05:59.236Z,23.07
2018-05-26T00:08:26.717Z,26.97
2018-05-26T00:10:55.001Z,23.87
2018-05-26T00:13:23.241Z,24.07
2018-05-26T00:15:50.745Z,23.23
2018-05-26T00:18:18.229Z,22.47
2018-05-26T00:20:45.749Z,20.93
2018-05-26T00:23:13.277Z,21.87
2018-05-26T00:25:41.529Z,23.40
2018-05-26T00:28:09.060Z,22.87
2018-05-26T00:30:36.547Z,22.63
2018-05-26T00:33:05.016Z,19.97
2018-05-26T00:35:32.515Z,20.87
2018-05-26T00:38:00.777Z,20.07
2018-05-26T00:40:28.250Z,21.80
2018-05-26T00:42:56.550Z,19.53
2018-05-26T00:45:24.040Z,20.63
2018-05-26T00:47:51.522Z,22.10
2018-05-26T00:50:19.044Z,19.93
2018-05-26T00:52:46.528Z,20.67
2018-05-26T00:55:14.140Z,20.93
2018-05-26T00:57:41.625Z,20.90
2018-05-26T01:00:09.254Z,23.90
2018-05-26T01:02:36.729Z,24.40
2018-05-26T01:05:04.675Z,22.70
2018-05-26T01:07:32.154Z,21.33
2018-05-26T01:09:59.709Z,22.97
2018-05-26T01:12:27.185Z,21.93
2018-05-26T01:14:54.702Z,23.73
2018-05-26T01:17:22.247Z,25.37
2018-05-26T01:19:49.824Z,24.63
2018-05-26T01:22:17.331Z,22.93
2018-05-26T01:24:44.939Z,23.13
2018-05-26T01:27:12.453Z,28.80
2018-05-26T01:29:40.726Z,22.93
2018-05-26T01:32:09.005Z,21.60
2018-05-26T01:34:37.248Z,24.23
2018-05-26T01:37:04.745Z,22.00
2018-05-26T01:39:33.004Z,26.40
2018-05-26T01:42:00.505Z,23.83
2018-05-26T01:44:28.012Z,27.87
2018-05-26T01:46:55.622Z,25.27
2018-05-26T01:49:23.117Z,25.87
2018-05-26T01:51:50.633Z,28.07
2018-05-26T01:54:18.109Z,25.60
2018-05-26T01:56:45.629Z,26.53
2018-05-26T01:59:13.124Z,25.83
2018-05-26T02:01:40.615Z,22.93
2018-05-26T02:04:08.131Z,21.63
2018-05-26T02:06:35.610Z,22.53
2018-05-26T02:09:03.414Z,23.17
2018-05-26T02:11:30.934Z,21.80
2018-05-26T02:13:58.409Z,21.77
2018-05-26T02:16:25.943Z,22.77
2018-05-26T02:18:53.418Z,22.57
2018-05-26T02:21:22.468Z,22.43
2018-05-26T02:23:49.942Z,24.23
2018-05-26T02:26:17.573Z,21.40
2018-05-26T02:28:45.049Z,22.53
2018-05-26T02:31:12.535Z,21.20
2018-05-26T02:33:41.537Z,22.33
2018-05-26T02:36:09.801Z,23.37
2018-05-26T02:38:37.335Z,23.60
2018-05-26T02:41:04.826Z,20.40
2018-05-26T02:43:33.102Z,21.73
2018-05-26T02:46:01.353Z,21.23
2018-05-26T02:48:28.855Z,21.80
2018-05-26T02:50:56.354Z,19.70
2018-05-26T02:53:24.141Z,20.93
2018-05-26T02:55:51.639Z,22.47
2018-05-26T02:58:19.137Z,24.87
2018-05-26T03:00:46.758Z,25.70
2018-05-26T03:03:14.249Z,23.17
2018-05-26T03:05:47.892Z,25.40
2018-05-26T03:08:21.170Z,24.17
2018-05-26T03:10:54.786Z,27.73
2018-05-26T03:13:28.653Z,24.83
2018-05-26T03:16:01.936Z,24.20
2018-05-26T03:18:29.420Z,27.57
2018-05-26T03:20:56.922Z,27.03
2018-05-26T03:23:24.890Z,29.33
2018-05-26T03:25:52.385Z,26.07
2018-05-26T03:28:19.901Z,25.63
2018-05-26T03:30:47.393Z,25.87
2018-05-26T03:33:14.928Z,29.03
2018-05-26T03:35:42.405Z,27.63
2018-05-26T03:38:09.902Z,31.47
2018-05-26T03:40:38.161Z,28.87
2018-05-26T03:43:05.652Z,27.63
2018-05-26T03:45:33.170Z,29.33
2018-05-26T03:48:00.653Z,26.67
2018-05-26T03:50:28.925Z,27.53
2018-05-26T03:52:57.184Z,31.43
2018-05-26T03:55:38.155Z,26.13
2018-05-26T03:58:17.737Z,27.40
2018-05-26T04:00:45.253Z,27.50
2018-05-26T04:03:13.493Z,29.23
2018-05-26T04:05:41.017Z,26.97
2018-05-26T04:08:08.497Z,29.23
2018-05-26T04:10:35.992Z,26.20
2018-05-26T04:13:03.469Z,27.40
2018-05-26T04:15:31.828Z,28.63
2018-05-26T04:17:59.266Z,23.43
2018-05-26T04:20:26.898Z,21.83
2018-05-26T04:22:54.459Z,21.33
2018-05-26T04:25:21.980Z,22.83
2018-05-26T04:27:50.245Z,21.57
2018-05-26T04:30:17.781Z,20.80
2018-05-26T04:32:45.260Z,20.30
2018-05-26T04:35:13.522Z,17.47
2018-05-26T04:37:41.021Z,15.63
2018-05-26T04:40:08.522Z,18.60
2018-05-26T04:42:36.021Z,13.77
2018-05-26T04:45:03.593Z,14.23
2018-05-26T04:47:31.085Z,13.53
2018-05-26T04:49:58.617Z,15.30
2018-05-26T04:52:26.117Z,16.23
2018-05-26T04:54:53.619Z,13.30
2018-05-26T04:57:21.137Z,15.87
2018-05-26T04:59:49.391Z,18.60
2018-05-26T05:02:16.903Z,17.03
2018-05-26T05:04:44.467Z,15.07
2018-05-26T05:07:11.986Z,16.97
2018-05-26T05:09:40.229Z,14.47
2018-05-26T05:12:07.725Z,15.53
2018-05-26T05:14:35.964Z,14.27
2018-05-26T05:17:03.496Z,14.50
2018-05-26T05:19:31.010Z,13.73
2018-05-26T05:21:59.261Z,12.93
2018-05-26T05:24:26.760Z,13.87
2018-05-26T05:26:54.237Z,13.13
2018-05-26T05:29:21.751Z,12.97
2018-05-26T05:31:50.023Z,12.60
2018-05-26T05:34:18.305Z,11.60
2018-05-26T05:36:46.550Z,11.87
2018-05-26T05:39:14.065Z,12.93
2018-05-26T05:41:41.549Z,13.73
2018-05-26T05:44:09.051Z,14.03
2018-05-26T05:46:37.521Z,13.40
2018-05-26T05:49:05.792Z,12.93
2018-05-26T05:51:33.280Z,13.07
2018-05-26T05:54:01.137Z,11.93
2018-05-26T05:56:29.439Z,11.97
2018-05-26T05:58:57.645Z,13.20
2018-05-26T06:01:25.141Z,13.50
2018-05-26T06:03:54.773Z,13.30
2018-05-26T06:06:22.604Z,15.73
2018-05-26T06:08:50.845Z,15.67
2018-05-26T06:11:18.341Z,15.30
2018-05-26T06:13:46.595Z,14.73
2018-05-26T06:16:14.873Z,18.30
2018-05-26T06:18:43.163Z,15.80
2018-05-26T06:21:11.425Z,20.17
2018-05-26T06:23:39.681Z,16.47
2018-05-26T06:26:07.205Z,18.17
2018-05-26T06:28:34.760Z,17.17
2018-05-26T06:31:02.293Z,15.13
2018-05-26T06:33:29.788Z,21.17
2018-05-26T06:35:57.271Z,15.97
2018-05-26T06:38:25.874Z,19.80
2018-05-26T06:40:54.136Z,16.43
2018-05-26T06:43:22.884Z,18.40
2018-05-26T06:45:50.379Z,13.77
2018-05-26T06:48:17.853Z,12.80
2018-05-26T06:50:46.198Z,12.57
2018-05-26T06:53:13.635Z,15.73
2018-05-26T06:55:41.183Z,14.97
2018-05-26T06:58:08.662Z,12.67
2018-05-26T07:00:36.134Z,14.97
2018-05-26T07:03:03.641Z,15.33
2018-05-26T07:05:31.121Z,13.33
2018-05-26T07:07:58.621Z,11.97
2018-05-26T07:10:26.865Z,12.60
2018-05-26T07:12:54.560Z,12.33
2018-05-26T07:15:22.830Z,12.40
2018-05-26T07:17:51.073Z,12.23
2018-05-26T07:20:19.366Z,14.93
2018-05-26T07:22:47.704Z,13.17
2018-05-26T07:25:15.206Z,14.23
2018-05-26T07:27:42.717Z,10.43
2018-05-26T07:30:10.370Z,13.43
2018-05-26T07:32:37.868Z,13.00
2018-05-26T07:35:06.129Z,9.87
2018-05-26T07:37:33.620Z,11.50
2018-05-26T07:40:02.218Z,12.37
2018-05-26T07:42:29.693Z,9.93
2018-05-26T07:44:57.204Z,10.40
2018-05-26T07:47:24.753Z,10.20
2018-05-26T07:49:52.233Z,8.63
2018-05-26T07:52:20.521Z,10.27
2018-05-26T07:54:48.021Z,10.17
2018-05-26T07:57:15.513Z,8.17
2018-05-26T07:59:43.766Z,12.00
2018-05-26T08:02:12.008Z,9.87
2018-05-26T08:04:39.505Z,10.17
2018-05-26T08:07:06.986Z,10.13
2018-05-26T08:09:34.567Z,8.93
2018-05-26T08:12:02.041Z,9.13
2018-05-26T08:14:29.581Z,8.37
2018-05-26T08:16:57.137Z,8.63
2018-05-26T08:19:24.607Z,8.77
2018-05-26T08:21:52.118Z,8.83
2018-05-26T08:24:20.376Z,9.47
2018-05-26T08:26:47.903Z,10.80
2018-05-26T08:29:15.400Z,7.70
2018-05-26T08:31:43.676Z,8.83
2018-05-26T08:34:11.936Z,8.90
2018-05-26T08:36:40.174Z,10.43
2018-05-26T08:39:07.709Z,10.83
2018-05-26T08:41:35.186Z,12.10
2018-05-26T08:44:02.705Z,9.97
2018-05-26T08:46:30.946Z,9.53
2018-05-26T08:48:58.470Z,10.00
2018-05-26T08:51:25.949Z,9.17
2018-05-26T08:53:53.444Z,9.47
2018-05-26T08:56:21.697Z,7.40
2018-05-26T08:58:49.190Z,9.40
2018-05-26T09:01:16.681Z,6.90
2018-05-26T09:03:44.158Z,7.93
2018-05-26T09:06:11.685Z,6.97
2018-05-26T09:08:39.174Z,8.60
2018-05-26T09:11:06.673Z,7.10
2018-05-26T09:13:34.181Z,7.33
2018-05-26T09:16:01.662Z,8.50
2018-05-26T09:18:29.156Z,8.07
2018-05-26T09:20:56.668Z,9.97
2018-05-26T09:23:24.153Z,8.43
2018-05-26T09:25:52.440Z,7.60
2018-05-26T09:28:19.917Z,7.83
2018-05-26T09:30:47.743Z,10.10
2018-05-26T09:33:16.001Z,6.60
2018-05-26T09:35:43.605Z,6.70
2018-05-26T09:38:11.094Z,6.70
2018-05-26T09:40:38.597Z,7.50
2018-05-26T09:43:06.081Z,9.37
2018-05-26T09:45:33.581Z,6.27
2018-05-26T09:48:01.085Z,7.43
2018-05-26T09:50:28.583Z,6.77
2018-05-26T09:52:56.073Z,6.23
2018-05-26T09:55:24.305Z,7.20
2018-05-26T09:57:51.822Z,7.23
2018-05-26T10:00:19.289Z,6.97
2018-05-26T10:02:46.835Z,6.50
2018-05-26T10:05:14.335Z,5.93
2018-05-26T10:07:41.812Z,6.10
2018-05-26T10:10:09.298Z,5.23
2018-05-26T10:12:36.773Z,6.57
2018-05-26T10:15:04.272Z,6.57
2018-05-26T10:17:31.759Z,5.53
2018-05-26T10:20:00.103Z,5.70
2018-05-26T10:22:27.533Z,5.63
2018-05-26T10:24:55.018Z,4.73
2018-05-26T10:27:23.454Z,3.90
2018-05-26T10:29:50.917Z,5.00
2018-05-26T10:32:18.471Z,5.20
2018-05-26T10:34:46.701Z,7.43
2018-05-26T10:37:14.937Z,7.23
2018-05-26T10:39:42.496Z,4.53
2018-05-26T10:42:09.961Z,4.23
2018-05-26T10:44:37.433Z,3.47
2018-05-26T10:47:04.956Z,3.80
2018-05-26T10:49:32.429Z,3.80
2018-05-26T10:51:59.949Z,3.73
2018-05-26T10:54:27.440Z,4.87
2018-05-26T10:56:54.955Z,3.63
2018-05-26T10:59:23.189Z,7.33
2018-05-26T11:01:50.718Z,5.43
2018-05-26T11:04:18.251Z,4.63
2018-05-26T11:06:46.609Z,4.63
2018-05-26T11:09:14.174Z,3.77
2018-05-26T11:11:41.652Z,4.07
2018-05-26T11:14:09.185Z,4.33
2018-05-26T11:16:36.672Z,3.23
2018-05-26T11:19:04.639Z,4.13
2018-05-26T11:21:32.852Z,2.97
2018-05-26T11:24:00.496Z,3.43
2018-05-26T11:26:27.845Z,5.20
2018-05-26T11:28:55.379Z,3.47
2018-05-26T11:31:23.612Z,5.97
2018-05-26T11:33:51.862Z,3.83
2018-05-26T11:36:19.372Z,3.20
2018-05-26T11:38:46.856Z,4.73
2018-05-26T11:41:14.348Z,4.30
2018-05-26T11:43:42.663Z,2.73
2018-05-26T11:46:10.889Z,3.07
2018-05-26T11:48:38.409Z,4.30
2018-05-26T11:51:05.893Z,3.20
2018-05-26T11:53:33.409Z,3.10
2018-05-26T11:56:00.912Z,4.53
2018-05-26T11:58:28.410Z,4.27
2018-05-26T12:00:55.904Z,4.13
2018-05-26T12:03:23.670Z,4.57
2018-05-26T12:05:51.145Z,3.57
2018-05-26T12:08:18.660Z,4.40
2018-05-26T12:10:46.207Z,5.07
2018-05-26T12:13:14.429Z,3.33
2018-05-26T12:15:43.171Z,4.20
2018-05-26T12:18:10.660Z,3.17
2018-05-26T12:20:38.150Z,5.30
2018-05-26T12:23:06.386Z,3.60
2018-05-26T12:25:33.894Z,2.70
2018-05-26T12:28:01.494Z,3.13
2018-05-26T12:30:28.981Z,3.23
2018-05-26T12:32:57.303Z,4.53
2018-05-26T12:35:24.768Z,4.87
2018-05-26T12:37:53.035Z,4.00
2018-05-26T12:40:20.509Z,3.80
2018-05-26T12:42:48.001Z,3.10
2018-05-26T12:45:15.487Z,3.30
2018-05-26T12:47:42.977Z,3.30
2018-05-26T12:50:10.446Z,4.37
2018-05-26T12:52:37.947Z,3.07
2018-05-26T12:55:05.409Z,3.03
2018-05-26T12:57:33.042Z,3.20
2018-05-26T13:00:00.545Z,5.50
2018-05-26T13:02:28.009Z,3.13
2018-05-26T13:04:55.536Z,2.73
2018-05-26T13:07:23.792Z,3.83
2018-05-26T13:09:51.325Z,5.93
2018-05-26T13:12:18.819Z,3.53
2018-05-26T13:14:47.073Z,5.63
2018-05-26T13:17:14.597Z,3.53
2018-05-26T13:19:42.082Z,3.30
2018-05-26T13:22:10.337Z,3.00
2018-05-26T13:24:37.836Z,3.03
2018-05-26T13:27:05.310Z,2.60
2018-05-26T13:29:32.823Z,3.23
2018-05-26T13:32:00.309Z,3.37
2018-05-26T13:34:27.820Z,3.73
2018-05-26T13:36:55.314Z,3.90
2018-05-26T13:39:23.574Z,3.50
2018-05-26T13:41:51.116Z,3.10
2018-05-26T13:44:18.595Z,2.87
2018-05-26T13:46:46.193Z,3.87
2018-05-26T13:49:13.674Z,3.10
2018-05-26T13:51:41.151Z,3.30
2018-05-26T13:54:08.657Z,2.53
2018-05-26T13:56:36.208Z,3.23
2018-05-26T13:59:03.685Z,5.17
2018-05-26T14:01:31.179Z,4.80
2018-05-26T14:03:58.660Z,6.13
2018-05-26T14:06:26.931Z,4.60
2018-05-26T14:08:55.191Z,4.23
2018-05-26T14:11:22.659Z,3.20
2018-05-26T14:13:50.153Z,3.33
2018-05-26T14:16:17.776Z,6.90
2018-05-26T14:18:45.469Z,4.00
2018-05-26T14:21:12.959Z,5.37
2018-05-26T14:23:40.450Z,6.80
2018-05-26T14:26:08.789Z,3.23
2018-05-26T14:28:36.323Z,3.23
2018-05-26T14:31:03.843Z,3.17
2018-05-26T14:33:32.114Z,2.90
2018-05-26T14:35:59.613Z,3.30
2018-05-26T14:38:27.125Z,3.33
2018-05-26T14:40:55.365Z,3.20
2018-05-26T14:43:22.850Z,3.00
2018-05-26T14:45:50.328Z,3.10
2018-05-26T14:48:18.601Z,4.50
2018-05-26T14:50:46.850Z,2.80
2018-05-26T14:53:14.345Z,4.03
2018-05-26T14:55:41.817Z,4.00
2018-05-26T14:58:09.311Z,6.80
2018-05-26T15:00:36.781Z,3.33
2018-05-26T15:03:04.276Z,3.07
2018-05-26T15:05:31.784Z,5.50
2018-05-26T15:07:59.274Z,3.60
2018-05-26T15:10:27.570Z,9.97
2018-05-26T15:12:55.129Z,5.40
2018-05-26T15:15:22.559Z,3.70
2018-05-26T15:17:50.800Z,5.33
2018-05-26T15:20:18.290Z,5.63
2018-05-26T15:22:46.581Z,4.07
2018-05-26T15:25:14.051Z,3.63
2018-05-26T15:27:41.543Z,3.27
2018-05-26T15:30:09.045Z,3.37
2018-05-26T15:32:36.550Z,3.93
2018-05-26T15:35:04.028Z,4.93
2018-05-26T15:37:31.517Z,3.80
2018-05-26T15:39:58.989Z,5.13
2018-05-26T15:42:26.538Z,3.47
2018-05-26T15:44:53.978Z,3.43
2018-05-26T15:47:21.501Z,3.73
2018-05-26T15:49:49.257Z,3.07
2018-05-26T15:52:16.757Z,3.40
2018-05-26T15:54:44.221Z,3.57
2018-05-26T15:57:11.713Z,3.27
2018-05-26T15:59:39.195Z,3.20
2018-05-26T16:02:07.429Z,3.67
2018-05-26T16:04:34.928Z,4.57
2018-05-26T16:07:02.419Z,4.23
2018-05-26T16:09:29.918Z,3.87
2018-05-26T16:11:57.394Z,3.57
2018-05-26T16:14:24.900Z,4.87
2018-05-26T16:16:52.390Z,4.53
2018-05-26T16:19:19.856Z,2.90
2018-05-26T16:21:47.377Z,4.40
2018-05-26T16:24:14.852Z,2.97
2018-05-26T16:26:42.377Z,4.97
2018-05-26T16:29:09.873Z,4.37
2018-05-26T16:31:38.122Z,6.87
2018-05-26T16:34:05.655Z,4.43
2018-05-26T16:36:33.187Z,4.77
2018-05-26T16:39:00.703Z,4.50
2018-05-26T16:41:28.204Z,3.67
2018-05-26T16:43:56.449Z,5.00
2018-05-26T16:46:23.936Z,4.60
2018-05-26T16:48:52.252Z,8.33
2018-05-26T16:51:19.734Z,8.27
2018-05-26T16:53:47.222Z,5.23
2018-05-26T16:56:14.693Z,4.70
2018-05-26T16:58:42.185Z,6.03
2018-05-26T17:01:09.662Z,4.40
2018-05-26T17:03:37.287Z,8.23
2018-05-26T17:06:04.785Z,8.27
2018-05-26T17:08:33.055Z,8.07
2018-05-26T17:11:00.541Z,3.40
2018-05-26T17:13:28.783Z,3.20
2018-05-26T17:15:56.313Z,5.67
2018-05-26T17:18:23.796Z,4.07
2018-05-26T17:20:51.285Z,4.20
2018-05-26T17:23:19.525Z,3.30
2018-05-26T17:25:47.016Z,3.60
2018-05-26T17:28:14.540Z,3.40
2018-05-26T17:30:42.025Z,4.93
2018-05-26T17:33:09.545Z,3.37
2018-05-26T17:35:37.017Z,3.63
2018-05-26T17:38:04.509Z,3.30
2018-05-26T17:40:32.832Z,5.17
2018-05-26T17:43:00.418Z,3.17
2018-05-26T17:45:27.889Z,3.10
2018-05-26T17:47:56.136Z,5.00
2018-05-26T17:50:23.651Z,7.50
2018-05-26T17:52:51.136Z,3.20
2018-05-26T17:55:18.617Z,2.80
2018-05-26T17:57:47.609Z,3.63
2018-05-26T18:00:15.865Z,3.27
2018-05-26T18:02:43.347Z,3.50
2018-05-26T18:05:11.607Z,3.30
2018-05-26T18:07:39.081Z,4.40
2018-05-26T18:10:06.570Z,3.50
2018-05-26T18:12:34.058Z,4.53
2018-05-26T18:15:01.543Z,3.23
2018-05-26T18:17:29.147Z,4.27
2018-05-26T18:19:56.653Z,3.53
2018-05-26T18:22:24.150Z,3.73
2018-05-26T18:24:51.648Z,3.50
2018-05-26T18:27:19.202Z,3.93
2018-05-26T18:29:46.685Z,4.30
2018-05-26T18:32:14.209Z,3.77
2018-05-26T18:34:41.715Z,6.23
2018-05-26T18:37:09.989Z,5.57
2018-05-26T18:39:37.463Z,3.97
2018-05-26T18:42:04.938Z,4.03
2018-05-26T18:44:32.433Z,5.43
2018-05-26T18:46:59.907Z,3.97
2018-05-26T18:49:28.166Z,4.03
2018-05-26T18:51:55.640Z,3.93
2018-05-26T18:54:23.105Z,4.20
2018-05-26T18:56:51.354Z,3.93
2018-05-26T18:59:18.841Z,5.43
2018-05-26T19:01:47.099Z,4.17
2018-05-26T19:04:15.390Z,4.27
2018-05-26T19:06:43.660Z,5.63
2018-05-26T19:09:11.980Z,7.13
2018-05-26T19:11:39.479Z,5.83
2018-05-26T19:14:06.980Z,5.17
2018-05-26T19:16:34.486Z,4.23
2018-05-26T19:19:02.021Z,6.70
2018-05-26T19:21:29.518Z,5.07
2018-05-26T19:23:57.793Z,5.37
2018-05-26T19:26:26.035Z,7.13
2018-05-26T19:28:53.559Z,3.93
2018-05-26T19:31:21.037Z,4.00
2018-05-26T19:33:48.548Z,6.27
2018-05-26T19:36:16.863Z,4.20
2018-05-26T19:38:44.361Z,4.00
2018-05-26T19:41:12.613Z,4.00
2018-05-26T19:43:40.104Z,4.53
2018-05-26T19:46:08.354Z,5.43
2018-05-26T19:48:35.845Z,4.13
2018-05-26T19:51:03.422Z,4.27
2018-05-26T19:53:30.901Z,4.73
2018-05-26T19:55:58.401Z,4.80
2018-05-26T19:58:26.634Z,5.90
2018-05-26T20:00:54.121Z,4.73
2018-05-26T20:03:22.425Z,4.97
2018-05-26T20:05:49.920Z,4.53
2018-05-26T20:08:17.451Z,5.17
2018-05-26T20:10:45.010Z,6.20
2018-05-26T20:13:12.505Z,5.10
2018-05-26T20:15:39.970Z,4.97
2018-05-26T20:18:08.229Z,5.60
2018-05-26T20:20:35.712Z,5.27
2018-05-26T20:23:03.197Z,5.07
2018-05-26T20:25:30.665Z,5.93
2018-05-26T20:27:58.169Z,6.17
2018-05-26T20:30:26.435Z,5.73
2018-05-26T20:32:55.433Z,5.13
2018-05-26T20:35:22.957Z,5.63
2018-05-26T20:37:50.421Z,7.93
2018-05-26T20:40:17.960Z,5.33
2018-05-26T20:42:45.449Z,7.73
2018-05-26T20:45:12.969Z,5.63
2018-05-26T20:47:40.529Z,5.47
2018-05-26T20:50:08.065Z,5.93
2018-05-26T20:52:36.321Z,7.60
2018-05-26T20:55:04.567Z,6.87
2018-05-26T20:57:32.066Z,9.83
2018-05-26T21:00:00.363Z,6.40
2018-05-26T21:02:27.808Z,6.07
2018-05-26T21:04:55.286Z,7.00
2018-05-26T21:07:22.788Z,8.53
2018-05-26T21:09:51.042Z,5.67
2018-05-26T21:12:18.525Z,6.17
2018-05-26T21:14:46.002Z,7.97
2018-05-26T21:17:14.259Z,5.83
2018-05-26T21:19:42.511Z,8.37
2018-05-26T21:22:10.027Z,7.40
2018-05-26T21:24:37.498Z,6.90
2018-05-26T21:27:05.012Z,7.53
2018-05-26T21:29:33.260Z,5.73
2018-05-26T21:32:00.740Z,7.07
2018-05-26T21:34:29.013Z,5.60
2018-05-26T21:36:56.503Z,6.63
2018-05-26T21:39:24.020Z,7.00
2018-05-26T21:41:51.481Z,8.10
2018-05-26T21:44:19.779Z,6.60
2018-05-26T21:46:47.241Z,8.37
2018-05-26T21:49:14.741Z,8.03
2018-05-26T21:51:42.213Z,9.20
2018-05-26T21:54:09.689Z,7.40
2018-05-26T21:56:37.957Z,8.67
2018-05-26T21:59:06.189Z,8.77
2018-05-26T22:01:33.713Z,11.23
2018-05-26T22:04:01.185Z,8.27
2018-05-26T22:06:28.687Z,7.90
2018-05-26T22:08:56.157Z,7.87
2018-05-26T22:11:23.629Z,10.53
2018-05-26T22:13:51.117Z,8.37
2018-05-26T22:16:18.589Z,9.07
2018-05-26T22:18:46.078Z,8.43
2018-05-26T22:21:14.317Z,8.73
2018-05-26T22:23:41.805Z,8.93
2018-05-26T22:26:10.078Z,10.43
2018-05-26T22:28:38.344Z,11.97
2018-05-26T22:31:06.593Z,10.10
2018-05-26T22:33:34.085Z,11.30
2018-05-26T22:36:01.549Z,9.00
2018-05-26T22:38:29.818Z,8.77
2018-05-26T22:40:58.085Z,9.90
2018-05-26T22:43:26.340Z,9.27
2018-05-26T22:45:54.030Z,13.77
2018-05-26T22:48:21.517Z,14.40
2018-05-26T22:50:49.001Z,10.73
2018-05-26T22:53:16.469Z,10.43
2018-05-26T22:55:43.993Z,10.50
2018-05-26T22:58:11.492Z,14.77
2018-05-26T23:00:39.301Z,12.17
2018-05-26T23:03:06.797Z,11.27
2018-05-26T23:05:34.266Z,11.60
2018-05-26T23:08:01.775Z,10.90
2018-05-26T23:10:29.273Z,17.03
2018-05-26T23:12:56.746Z,13.80
2018-05-26T23:15:24.238Z,12.43
2018-05-26T23:17:51.709Z,13.07
2018-05-26T23:20:19.190Z,13.63
2018-05-26T23:22:46.676Z,13.67
2018-05-26T23:25:14.188Z,12.67
2018-05-26T23:27:41.699Z,11.97
2018-05-26T23:30:09.957Z,16.87
2018-05-26T23:32:37.465Z,12.60
2018-05-26T23:35:04.960Z,10.70
2018-05-26T23:37:32.450Z,10.40
2018-05-26T23:40:00.685Z,10.90
2018-05-26T23:42:28.199Z,11.27
2018-05-26T23:44:55.703Z,12.70
2018-05-26T23:47:23.181Z,11.70
2018-05-26T23:49:50.712Z,14.67
2018-05-26T23:52:18.183Z,13.47
2018-05-26T23:54:45.681Z,11.10
2018-05-26T23:57:13.160Z,12.20
2018-05-26T23:59:40.658Z,10.50
